createdAt,value
2022-07-29T00:00:24.595Z,54.14
2022-07-29T00:01:24.582Z,53.76
2022-07-29T00:02:24.612Z,53.76
2022-07-29T00:03:24.600Z,53.31
2022-07-29T00:04:24.627Z,53.11
2022-07-29T00:05:24.534Z,53.31
2022-07-29T00:06:24.518Z,52.83
2022-07-29T00:07:24.507Z,52.92
2022-07-29T00:08:24.509Z,52.15
2022-07-29T00:09:24.491Z,52.06
2022-07-29T00:10:24.469Z,51.76
2022-07-29T00:11:24.462Z,51.76
2022-07-29T00:12:26.265Z,52.06
2022-07-29T00:13:31.762Z,52.06
2022-07-29T00:14:24.426Z,51.48
2022-07-29T00:15:24.414Z,51.19
2022-07-29T00:16:24.458Z,51.31
2022-07-29T00:17:24.396Z,51.21
2022-07-29T00:18:24.373Z,50.83
2022-07-29T00:19:24.362Z,50.73
2022-07-29T00:20:24.351Z,50.54
2022-07-29T00:21:24.340Z,50.83
2022-07-29T00:22:24.325Z,50.61
2022-07-29T00:23:24.322Z,50.54
2022-07-29T00:24:24.301Z,50.63
2022-07-29T00:25:24.293Z,50.35
2022-07-29T00:26:24.283Z,50.25
2022-07-29T00:27:24.269Z,49.65
2022-07-29T00:28:24.255Z,49.87
2022-07-29T00:29:34.068Z,49.87
2022-07-29T00:30:24.230Z,50.06
2022-07-29T00:31:24.255Z,50.15
2022-07-29T00:32:24.208Z,49.87
2022-07-29T00:33:24.195Z,49.77
2022-07-29T00:34:24.182Z,49.96
2022-07-29T00:35:24.171Z,49.87
2022-07-29T00:36:24.158Z,49.87
2022-07-29T00:37:24.171Z,49.65
2022-07-29T00:38:24.142Z,49.48
2022-07-29T00:39:24.128Z,49.55
2022-07-29T00:40:24.111Z,49.38
2022-07-29T00:41:24.101Z,49.55
2022-07-29T00:42:24.097Z,49.68
2022-07-29T00:43:24.080Z,49.36
2022-07-29T00:44:24.068Z,49.46
2022-07-29T00:45:24.052Z,49.29
2022-07-29T00:46:24.118Z,49.87
2022-07-29T00:47:24.043Z,49.77
2022-07-29T00:48:24.025Z,49.84
2022-07-29T00:49:24.082Z,49.94
2022-07-29T00:50:23.992Z,50.51
2022-07-29T00:51:23.989Z,50.61
2022-07-29T00:52:23.970Z,50.90
2022-07-29T00:53:23.959Z,51.67
2022-07-29T00:54:23.946Z,51.38
2022-07-29T00:55:23.936Z,52.06
2022-07-29T00:56:23.924Z,52.06
2022-07-29T00:57:23.914Z,51.86
2022-07-29T00:58:23.899Z,52.15
2022-07-29T00:59:23.889Z,52.42
2022-07-29T01:00:23.888Z,52.89
2022-07-29T01:01:23.945Z,52.89
2022-07-29T01:02:23.867Z,53.28
2022-07-29T01:03:23.843Z,53.09
2022-07-29T01:04:23.828Z,53.47
2022-07-29T01:05:23.819Z,53.66
2022-07-29T01:06:23.804Z,53.86
2022-07-29T01:07:23.795Z,53.76
2022-07-29T01:08:23.781Z,53.96
2022-07-29T01:09:37.263Z,54.50
2022-07-29T01:10:23.760Z,54.60
2022-07-29T01:11:23.751Z,54.12
2022-07-29T01:12:23.743Z,54.41
2022-07-29T01:13:23.724Z,54.41
2022-07-29T01:14:23.719Z,54.79
2022-07-29T01:15:23.703Z,54.69
2022-07-29T01:16:23.768Z,54.99
2022-07-29T01:17:23.674Z,55.56
2022-07-29T01:18:23.659Z,55.18
2022-07-29T01:19:23.650Z,55.46
2022-07-29T01:20:23.636Z,55.46
2022-07-29T01:21:23.630Z,55.63
2022-07-29T01:22:23.610Z,55.94
2022-07-29T01:23:23.601Z,56.01
2022-07-29T01:24:23.588Z,56.11
2022-07-29T01:25:23.582Z,56.78
2022-07-29T01:26:23.567Z,56.78
2022-07-29T01:27:23.551Z,56.68
2022-07-29T01:28:23.539Z,57.07
2022-07-29T01:29:23.529Z,57.17
2022-07-29T01:30:23.518Z,57.52
2022-07-29T01:31:25.379Z,57.43
2022-07-29T01:32:28.639Z,57.52
2022-07-29T01:33:23.477Z,57.81
2022-07-29T01:34:23.465Z,57.71
2022-07-29T01:35:23.455Z,57.71
2022-07-29T01:36:23.444Z,58.00
2022-07-29T01:37:23.430Z,58.29
2022-07-29T01:38:23.415Z,58.10
2022-07-29T01:39:23.405Z,57.88
2022-07-29T01:40:23.391Z,58.55
2022-07-29T01:41:23.381Z,58.45
2022-07-29T01:42:23.367Z,58.64
2022-07-29T01:43:23.358Z,58.84
2022-07-29T01:44:23.344Z,59.03
2022-07-29T01:45:23.333Z,59.22
2022-07-29T01:46:23.375Z,58.84
2022-07-29T01:47:23.318Z,59.19
2022-07-29T01:48:23.291Z,59.58
2022-07-29T01:49:23.354Z,59.67
2022-07-29T01:50:23.266Z,59.77
2022-07-29T01:51:23.257Z,60.35
2022-07-29T01:52:23.243Z,60.05
2022-07-29T01:53:23.237Z,60.63
2022-07-29T01:54:23.214Z,60.63
2022-07-29T01:55:23.204Z,60.89
2022-07-29T01:56:23.191Z,60.89
2022-07-29T01:57:23.179Z,61.08
2022-07-29T01:58:23.163Z,61.85
2022-07-29T01:59:23.155Z,61.46
2022-07-29T02:00:23.143Z,61.37
2022-07-29T02:01:23.169Z,61.85
2022-07-29T02:02:23.110Z,62.33
2022-07-29T02:03:23.101Z,62.20
2022-07-29T02:04:29.002Z,62.20
2022-07-29T02:05:23.171Z,62.49
2022-07-29T02:06:23.060Z,62.39
2022-07-29T02:07:23.053Z,62.30
2022-07-29T02:08:23.037Z,62.30
2022-07-29T02:09:23.021Z,62.77
2022-07-29T02:10:26.096Z,62.87
2022-07-29T02:11:23.007Z,63.06
2022-07-29T02:12:22.982Z,63.16
2022-07-29T02:13:22.972Z,63.16
2022-07-29T02:14:22.956Z,62.96
2022-07-29T02:15:22.947Z,63.06
2022-07-29T02:16:23.010Z,63.35
2022-07-29T02:17:22.915Z,63.54
2022-07-29T02:18:22.904Z,63.60
2022-07-29T02:19:22.893Z,64.02
2022-07-29T02:20:22.878Z,63.80
2022-07-29T02:21:22.867Z,64.28
2022-07-29T02:22:22.852Z,64.09
2022-07-29T02:23:22.838Z,64.09
2022-07-29T02:24:22.821Z,64.76
2022-07-29T02:25:22.812Z,64.66
2022-07-29T02:26:22.795Z,64.85
2022-07-29T02:27:22.789Z,64.66
2022-07-29T02:28:22.777Z,64.47
2022-07-29T02:29:22.756Z,64.66
2022-07-29T02:30:22.749Z,64.47
2022-07-29T02:31:22.807Z,64.37
2022-07-29T02:32:22.716Z,64.56
2022-07-29T02:33:22.705Z,64.56
2022-07-29T02:34:22.690Z,64.85
2022-07-29T02:35:22.677Z,64.47
2022-07-29T02:36:22.678Z,64.76
2022-07-29T02:37:22.651Z,65.14
2022-07-29T02:38:22.645Z,64.95
2022-07-29T02:39:22.623Z,65.42
2022-07-29T02:40:22.619Z,65.33
2022-07-29T02:41:22.597Z,65.33
2022-07-29T02:42:22.584Z,65.71
2022-07-29T02:43:22.574Z,65.91
2022-07-29T02:44:22.555Z,65.91
2022-07-29T02:45:22.545Z,65.91
2022-07-29T02:46:28.377Z,65.52
2022-07-29T02:47:22.521Z,65.81
2022-07-29T02:48:22.502Z,66.09
2022-07-29T02:49:22.543Z,66.19
2022-07-29T02:50:22.481Z,66.19
2022-07-29T02:51:43.508Z,66.19
2022-07-29T02:52:22.455Z,66.29
2022-07-29T02:53:22.435Z,66.25
2022-07-29T02:54:22.429Z,66.38
2022-07-29T02:55:22.406Z,66.54
2022-07-29T02:56:22.399Z,66.54
2022-07-29T02:57:22.377Z,66.48
2022-07-29T02:58:22.366Z,66.38
2022-07-29T02:59:22.353Z,66.83
2022-07-29T03:00:22.340Z,67.02
2022-07-29T03:01:22.391Z,66.83
2022-07-29T03:02:22.312Z,66.74
2022-07-29T03:03:22.306Z,67.11
2022-07-29T03:04:22.310Z,67.21
2022-07-29T03:05:22.268Z,67.31
2022-07-29T03:06:28.879Z,67.11
2022-07-29T03:07:22.243Z,67.02
2022-07-29T03:08:22.234Z,67.31
2022-07-29T03:09:22.217Z,67.69
2022-07-29T03:10:22.204Z,67.69
2022-07-29T03:11:22.186Z,67.60
2022-07-29T03:12:22.177Z,67.41
2022-07-29T03:13:22.160Z,68.36
2022-07-29T03:14:22.151Z,68.17
2022-07-29T03:15:22.134Z,68.07
2022-07-29T03:16:22.222Z,68.07
2022-07-29T03:17:22.110Z,67.98
2022-07-29T03:18:22.093Z,67.98
2022-07-29T03:19:22.081Z,67.98
2022-07-29T03:20:22.071Z,67.88
2022-07-29T03:21:22.051Z,68.52
2022-07-29T03:22:22.039Z,68.36
2022-07-29T03:23:22.026Z,68.42
2022-07-29T03:24:22.016Z,68.46
2022-07-29T03:25:22.016Z,68.52
2022-07-29T03:26:21.987Z,69.19
2022-07-29T03:27:21.972Z,69.29
2022-07-29T03:28:22.134Z,69.29
2022-07-29T03:29:21.945Z,69.09
2022-07-29T03:30:22.611Z,69.19
2022-07-29T03:31:21.955Z,69.09
2022-07-29T03:32:24.063Z,69.09
2022-07-29T03:33:21.896Z,69.29
2022-07-29T03:34:21.878Z,68.90
2022-07-29T03:35:21.862Z,69.29
2022-07-29T03:36:21.852Z,69.19
2022-07-29T03:37:21.838Z,69.76
2022-07-29T03:38:21.824Z,69.38
2022-07-29T03:39:21.811Z,69.95
2022-07-29T03:40:21.793Z,69.76
2022-07-29T03:41:22.562Z,69.86
2022-07-29T03:42:21.764Z,70.01
2022-07-29T03:43:21.761Z,69.92
2022-07-29T03:44:21.741Z,70.30
2022-07-29T03:45:21.721Z,70.01
2022-07-29T03:46:21.768Z,70.21
2022-07-29T03:47:21.708Z,70.01
2022-07-29T03:48:21.685Z,70.01
2022-07-29T03:49:21.759Z,70.21
2022-07-29T03:50:21.655Z,70.30
2022-07-29T03:51:33.344Z,70.21
2022-07-29T03:52:21.635Z,70.21
2022-07-29T03:53:21.615Z,70.40
2022-07-29T03:54:22.011Z,70.11
2022-07-29T03:55:21.584Z,70.87
2022-07-29T03:56:21.588Z,70.78
2022-07-29T03:57:21.556Z,70.97
2022-07-29T03:58:21.545Z,70.97
2022-07-29T03:59:21.535Z,71.22
2022-07-29T04:00:21.514Z,70.65
2022-07-29T04:01:21.593Z,71.32
2022-07-29T04:02:23.581Z,71.42
2022-07-29T04:03:21.483Z,71.22
2022-07-29T04:04:21.467Z,71.22
2022-07-29T04:05:21.450Z,71.42
2022-07-29T04:06:21.427Z,71.22
2022-07-29T04:07:21.414Z,71.70
2022-07-29T04:08:21.409Z,71.22
2022-07-29T04:09:21.386Z,71.32
2022-07-29T04:10:30.048Z,71.32
2022-07-29T04:11:21.362Z,71.70
2022-07-29T04:12:21.345Z,71.51
2022-07-29T04:13:21.329Z,71.70
2022-07-29T04:14:21.317Z,71.70
2022-07-29T04:15:21.303Z,71.51
2022-07-29T04:16:21.369Z,72.08
2022-07-29T04:17:21.277Z,71.89
2022-07-29T04:18:21.259Z,71.70
2022-07-29T04:19:21.267Z,71.89
2022-07-29T04:20:21.231Z,72.08
2022-07-29T04:21:21.218Z,71.89
2022-07-29T04:22:21.202Z,72.08
2022-07-29T04:23:21.189Z,71.70
2022-07-29T04:24:21.285Z,71.70
2022-07-29T04:25:21.162Z,71.70
2022-07-29T04:26:21.145Z,71.73
2022-07-29T04:27:21.144Z,71.73
2022-07-29T04:28:21.119Z,71.64
2022-07-29T04:29:21.101Z,71.93
2022-07-29T04:30:21.091Z,71.93
2022-07-29T04:31:25.583Z,72.22
2022-07-29T04:32:21.061Z,72.12
2022-07-29T04:33:21.069Z,72.02
2022-07-29T04:34:21.238Z,71.93
2022-07-29T04:35:21.022Z,71.93
2022-07-29T04:36:29.491Z,72.31
2022-07-29T04:37:20.989Z,72.02
2022-07-29T04:38:20.977Z,71.93
2022-07-29T04:39:23.199Z,72.12
2022-07-29T04:40:20.947Z,72.22
2022-07-29T04:41:20.934Z,71.93
2022-07-29T04:42:26.682Z,72.60
2022-07-29T04:43:23.147Z,72.12
2022-07-29T04:44:20.892Z,71.73
2022-07-29T04:45:22.485Z,71.93
2022-07-29T04:46:20.889Z,72.22
2022-07-29T04:47:20.848Z,72.60
2022-07-29T04:48:25.355Z,72.12
2022-07-29T04:49:20.860Z,71.83
2022-07-29T04:50:20.805Z,71.93
2022-07-29T04:51:20.792Z,71.73
2022-07-29T04:52:20.778Z,72.22
2022-07-29T04:53:20.765Z,72.02
2022-07-29T04:54:20.749Z,72.34
2022-07-29T04:55:20.735Z,72.44
2022-07-29T04:56:20.724Z,72.06
2022-07-29T04:57:22.082Z,72.25
2022-07-29T04:58:20.694Z,71.97
2022-07-29T04:59:20.682Z,71.97
2022-07-29T05:00:20.666Z,72.29
2022-07-29T05:01:20.807Z,72.19
2022-07-29T05:02:20.670Z,71.81
2022-07-29T05:03:20.622Z,71.71
2022-07-29T05:04:21.078Z,71.62
2022-07-29T05:05:20.597Z,71.71
2022-07-29T05:06:20.582Z,71.52
2022-07-29T05:07:20.567Z,71.04
2022-07-29T05:08:20.555Z,71.42
2022-07-29T05:09:20.537Z,70.98
2022-07-29T05:10:20.528Z,70.60
2022-07-29T05:11:22.455Z,70.41
2022-07-29T05:12:20.498Z,70.60
2022-07-29T05:13:20.491Z,70.12
2022-07-29T05:14:20.747Z,69.93
2022-07-29T05:15:20.487Z,69.93
2022-07-29T05:16:20.541Z,69.64
2022-07-29T05:17:20.428Z,69.54
2022-07-29T05:18:20.422Z,69.64
2022-07-29T05:19:20.400Z,69.17
2022-07-29T05:20:20.389Z,69.17
2022-07-29T05:21:20.373Z,69.45
2022-07-29T05:22:20.547Z,68.78
2022-07-29T05:23:20.349Z,69.17
2022-07-29T05:24:20.550Z,68.87
2022-07-29T05:25:20.330Z,68.78
2022-07-29T05:26:20.313Z,68.59
2022-07-29T05:27:20.298Z,68.59
2022-07-29T05:28:20.282Z,68.30
2022-07-29T05:29:42.851Z,68.97
2022-07-29T05:30:20.480Z,68.87
2022-07-29T05:31:20.364Z,68.87
2022-07-29T05:32:20.226Z,68.30
2022-07-29T05:33:36.228Z,69.01
2022-07-29T05:34:20.195Z,68.87
2022-07-29T05:35:20.187Z,69.20
2022-07-29T05:36:20.172Z,68.72
2022-07-29T05:37:20.155Z,68.81
2022-07-29T05:38:20.141Z,68.52
2022-07-29T05:39:20.134Z,68.14
2022-07-29T05:40:20.124Z,68.05
2022-07-29T05:41:20.125Z,67.60
2022-07-29T05:42:20.085Z,67.79
2022-07-29T05:43:20.072Z,67.41
2022-07-29T05:44:20.070Z,67.41
2022-07-29T05:45:20.044Z,67.32
2022-07-29T05:46:20.098Z,67.50
2022-07-29T05:47:20.018Z,67.44
2022-07-29T05:48:20.009Z,67.16
2022-07-29T05:49:26.918Z,66.86
2022-07-29T05:50:19.978Z,66.96
2022-07-29T05:51:19.975Z,66.29
2022-07-29T05:52:19.955Z,65.91
2022-07-29T05:53:20.858Z,65.84
2022-07-29T05:54:19.941Z,65.75
2022-07-29T05:55:19.913Z,65.56
2022-07-29T05:56:19.911Z,65.36
2022-07-29T05:57:19.894Z,65.01
2022-07-29T05:58:19.880Z,64.82
2022-07-29T05:59:19.866Z,64.34
2022-07-29T06:00:19.857Z,64.43
2022-07-29T06:01:19.870Z,63.96
2022-07-29T06:02:19.860Z,63.96
2022-07-29T06:03:19.833Z,63.28
2022-07-29T06:04:20.498Z,63.79
2022-07-29T06:05:19.788Z,63.51
2022-07-29T06:06:19.772Z,63.22
2022-07-29T06:07:19.757Z,62.84
2022-07-29T06:08:19.747Z,62.55
2022-07-29T06:09:19.734Z,62.55
2022-07-29T06:10:19.724Z,63.02
2022-07-29T06:11:19.708Z,63.41
2022-07-29T06:12:19.697Z,63.12
2022-07-29T06:13:19.680Z,63.12
2022-07-29T06:14:19.821Z,63.22
2022-07-29T06:15:19.688Z,63.41
2022-07-29T06:16:30.297Z,63.51
2022-07-29T06:17:19.635Z,63.02
2022-07-29T06:18:19.621Z,62.87
2022-07-29T06:19:19.607Z,62.58
2022-07-29T06:20:19.596Z,62.68
2022-07-29T06:21:19.581Z,63.06
2022-07-29T06:22:19.571Z,63.25
2022-07-29T06:23:19.556Z,63.25
2022-07-29T06:24:20.102Z,63.25
2022-07-29T06:25:19.533Z,63.45
2022-07-29T06:26:19.529Z,63.15
2022-07-29T06:27:19.539Z,63.15
2022-07-29T06:28:19.511Z,63.35
2022-07-29T06:29:19.483Z,62.68
2022-07-29T06:30:19.472Z,62.58
2022-07-29T06:31:19.484Z,62.38
2022-07-29T06:32:19.447Z,62.58
2022-07-29T06:33:19.437Z,62.19
2022-07-29T06:34:19.800Z,62.29
2022-07-29T06:35:38.454Z,61.91
2022-07-29T06:36:19.396Z,62.48
2022-07-29T06:37:19.385Z,62.19
2022-07-29T06:38:30.897Z,62.29
2022-07-29T06:39:19.358Z,61.91
2022-07-29T06:40:19.348Z,61.91
2022-07-29T06:41:19.336Z,61.91
2022-07-29T06:42:19.325Z,61.36
2022-07-29T06:43:19.312Z,61.16
2022-07-29T06:44:19.697Z,60.88
2022-07-29T06:45:19.285Z,60.78
2022-07-29T06:46:19.371Z,60.78
2022-07-29T06:47:19.263Z,60.72
2022-07-29T06:48:19.263Z,60.62
2022-07-29T06:49:19.348Z,59.85
2022-07-29T06:50:19.248Z,59.30
2022-07-29T06:51:21.737Z,59.40
2022-07-29T06:52:19.208Z,58.34
2022-07-29T06:53:19.214Z,57.50
2022-07-29T06:54:19.382Z,57.31
2022-07-29T06:55:24.997Z,56.66
2022-07-29T06:56:19.156Z,55.89
2022-07-29T06:57:19.146Z,55.41
2022-07-29T06:58:19.132Z,54.66
2022-07-29T06:59:20.586Z,54.28
2022-07-29T07:00:19.120Z,53.73
2022-07-29T07:01:19.126Z,53.63
2022-07-29T07:02:19.119Z,52.40
2022-07-29T07:03:19.079Z,52.21
2022-07-29T07:04:19.392Z,52.21
2022-07-29T07:05:19.054Z,52.01
2022-07-29T07:06:19.046Z,51.34
2022-07-29T07:07:19.036Z,50.28
2022-07-29T07:08:19.022Z,49.82
2022-07-29T07:09:19.010Z,50.59
2022-07-29T07:10:18.998Z,50.01
2022-07-29T07:11:18.990Z,49.63
2022-07-29T07:12:18.982Z,49.24
2022-07-29T07:13:18.970Z,48.37
2022-07-29T07:14:19.318Z,48.28
2022-07-29T07:15:18.948Z,48.66
2022-07-29T07:16:18.979Z,48.25
2022-07-29T07:17:18.925Z,48.64
2022-07-29T07:18:18.915Z,49.12
2022-07-29T07:19:18.908Z,49.24
2022-07-29T07:20:18.904Z,49.63
2022-07-29T07:21:19.672Z,49.44
2022-07-29T07:22:18.874Z,49.05
2022-07-29T07:23:18.870Z,48.86
2022-07-29T07:24:19.102Z,48.69
2022-07-29T07:25:18.849Z,48.21
2022-07-29T07:26:18.840Z,48.21
2022-07-29T07:27:18.829Z,48.01
2022-07-29T07:28:18.812Z,47.63
2022-07-29T07:29:18.801Z,47.26
2022-07-29T07:30:18.790Z,46.97
2022-07-29T07:31:18.920Z,47.16
2022-07-29T07:32:18.817Z,47.26
2022-07-29T07:33:18.767Z,47.55
2022-07-29T07:34:19.176Z,47.36
2022-07-29T07:35:18.743Z,47.45
2022-07-29T07:36:18.739Z,47.38
2022-07-29T07:37:18.722Z,47.38
2022-07-29T07:38:18.712Z,46.92
2022-07-29T07:39:18.712Z,46.44
2022-07-29T07:40:18.974Z,46.56
2022-07-29T07:41:18.695Z,46.75
2022-07-29T07:42:18.686Z,46.46
2022-07-29T07:43:18.671Z,45.90
2022-07-29T07:44:18.996Z,45.81
2022-07-29T07:45:18.674Z,45.71
2022-07-29T07:46:18.771Z,45.71
2022-07-29T07:47:18.632Z,45.34
2022-07-29T07:48:18.626Z,44.96
2022-07-29T07:49:18.648Z,44.78
2022-07-29T07:50:19.343Z,44.30
2022-07-29T07:51:18.604Z,44.10
2022-07-29T07:52:18.589Z,44.01
2022-07-29T07:53:18.584Z,43.72
2022-07-29T07:54:20.460Z,43.23
2022-07-29T07:55:18.567Z,43.91
2022-07-29T07:56:18.702Z,43.82
2022-07-29T07:57:18.549Z,43.62
2022-07-29T07:58:18.553Z,43.43
2022-07-29T07:59:18.535Z,43.26
2022-07-29T08:00:18.530Z,43.16
2022-07-29T08:01:18.570Z,43.16
2022-07-29T08:02:18.654Z,43.26
2022-07-29T08:03:18.514Z,43.84
2022-07-29T08:04:23.487Z,43.26
2022-07-29T08:05:18.485Z,43.27
2022-07-29T08:06:18.480Z,43.57
2022-07-29T08:07:18.471Z,43.10
2022-07-29T08:08:18.463Z,43.40
2022-07-29T08:09:28.884Z,43.01
2022-07-29T08:10:18.451Z,42.52
2022-07-29T08:11:18.448Z,42.43
2022-07-29T08:12:18.437Z,41.64
2022-07-29T08:13:18.429Z,42.43
2022-07-29T08:14:18.764Z,42.40
2022-07-29T08:15:18.419Z,42.50
2022-07-29T08:16:18.501Z,43.08
2022-07-29T08:17:18.400Z,43.08
2022-07-29T08:18:18.393Z,43.27
2022-07-29T08:19:18.387Z,43.37
2022-07-29T08:20:18.375Z,43.16
2022-07-29T08:21:18.373Z,43.93
2022-07-29T08:22:18.362Z,43.72
2022-07-29T08:23:18.355Z,43.91
2022-07-29T08:24:18.370Z,44.59
2022-07-29T08:25:18.343Z,44.01
2022-07-29T08:26:18.337Z,44.67
2022-07-29T08:27:41.948Z,44.96
2022-07-29T08:28:18.339Z,44.47
2022-07-29T08:29:20.030Z,45.05
2022-07-29T08:30:18.302Z,44.96
2022-07-29T08:31:18.318Z,45.22
2022-07-29T08:32:36.955Z,46.00
2022-07-29T08:33:18.283Z,45.81
2022-07-29T08:34:18.274Z,46.00
2022-07-29T08:35:18.265Z,46.12
2022-07-29T08:36:18.256Z,45.73
2022-07-29T08:37:18.250Z,45.75
2022-07-29T08:38:18.246Z,45.27
2022-07-29T08:39:18.233Z,44.71
2022-07-29T08:40:18.231Z,45.21
2022-07-29T08:41:18.223Z,44.75
2022-07-29T08:42:18.223Z,43.80
2022-07-29T08:43:18.273Z,43.32
2022-07-29T08:44:18.222Z,43.34
2022-07-29T08:45:18.190Z,42.87
2022-07-29T08:46:18.415Z,42.68
2022-07-29T08:47:18.178Z,42.97
2022-07-29T08:48:18.175Z,42.49
2022-07-29T08:49:18.226Z,42.66
2022-07-29T08:50:18.183Z,42.66
2022-07-29T08:51:18.151Z,42.95
2022-07-29T08:52:18.146Z,42.68
2022-07-29T08:53:18.139Z,42.31
2022-07-29T08:54:18.144Z,42.14
2022-07-29T08:55:21.409Z,41.48
2022-07-29T08:56:18.117Z,41.28
2022-07-29T08:57:18.111Z,41.01
2022-07-29T08:58:18.125Z,40.55
2022-07-29T08:59:18.132Z,40.55
2022-07-29T09:00:18.099Z,40.35
2022-07-29T09:01:18.122Z,40.17
2022-07-29T09:02:18.086Z,40.37
2022-07-29T09:03:18.121Z,40.08
2022-07-29T09:04:18.073Z,40.00
2022-07-29T09:05:18.068Z,40.00
2022-07-29T09:06:18.066Z,38.94
2022-07-29T09:07:18.063Z,38.84
2022-07-29T09:08:18.056Z,38.55
2022-07-29T09:09:18.101Z,38.53
2022-07-29T09:10:18.042Z,38.82
2022-07-29T09:11:18.083Z,39.41
2022-07-29T09:12:29.563Z,39.39
2022-07-29T09:13:18.102Z,39.51
2022-07-29T09:14:18.028Z,39.61
2022-07-29T09:15:18.022Z,40.09
2022-07-29T09:16:37.198Z,40.09
2022-07-29T09:17:18.030Z,40.00
2022-07-29T09:18:20.382Z,40.11
2022-07-29T09:19:18.004Z,39.26
2022-07-29T09:20:18.103Z,39.45
2022-07-29T09:21:17.995Z,39.45
2022-07-29T09:22:17.992Z,39.16
2022-07-29T09:23:23.152Z,38.87
2022-07-29T09:24:17.985Z,39.16
2022-07-29T09:25:17.980Z,38.77
2022-07-29T09:26:17.971Z,38.69
2022-07-29T09:27:18.005Z,37.63
2022-07-29T09:28:17.975Z,37.93
2022-07-29T09:29:17.960Z,37.63
2022-07-29T09:30:25.549Z,37.83
2022-07-29T09:31:18.009Z,37.52
2022-07-29T09:32:17.949Z,37.91
2022-07-29T09:33:17.950Z,38.30
2022-07-29T09:34:17.953Z,38.18
2022-07-29T09:35:17.938Z,38.94
2022-07-29T09:36:17.950Z,39.04
2022-07-29T09:37:17.932Z,39.14
2022-07-29T09:38:17.925Z,39.22
2022-07-29T09:39:17.997Z,39.51
2022-07-29T09:40:18.112Z,39.51
2022-07-29T09:41:17.915Z,39.51
2022-07-29T09:42:17.907Z,39.41
2022-07-29T09:43:17.911Z,39.12
2022-07-29T09:44:17.936Z,39.31
2022-07-29T09:45:17.898Z,39.51
2022-07-29T09:46:17.948Z,39.31
2022-07-29T09:47:17.985Z,39.33
2022-07-29T09:48:17.885Z,39.23
2022-07-29T09:49:17.945Z,39.14
2022-07-29T09:50:17.877Z,38.94
2022-07-29T09:51:20.662Z,38.94
2022-07-29T09:52:17.866Z,38.84
2022-07-29T09:53:17.864Z,38.87
2022-07-29T09:54:17.860Z,38.87
2022-07-29T09:55:18.370Z,38.61
2022-07-29T09:56:17.850Z,38.32
2022-07-29T09:57:17.850Z,37.75
2022-07-29T09:58:17.851Z,37.47
2022-07-29T09:59:17.851Z,36.88
2022-07-29T10:00:17.836Z,36.80
2022-07-29T10:01:17.907Z,36.63
2022-07-29T10:02:22.152Z,36.25
2022-07-29T10:03:17.859Z,35.47
2022-07-29T10:04:17.824Z,35.66
2022-07-29T10:05:17.821Z,35.47
2022-07-29T10:06:17.818Z,35.58
2022-07-29T10:07:17.817Z,35.39
2022-07-29T10:08:17.813Z,35.10
2022-07-29T10:09:17.811Z,34.92
2022-07-29T10:10:17.805Z,34.74
2022-07-29T10:11:17.805Z,34.77
2022-07-29T10:12:17.805Z,33.69
2022-07-29T10:13:17.800Z,33.62
2022-07-29T10:14:17.857Z,32.56
2022-07-29T10:15:17.799Z,32.57
2022-07-29T10:16:17.854Z,32.00
2022-07-29T10:17:17.798Z,31.72
2022-07-29T10:18:17.793Z,31.14
2022-07-29T10:19:17.793Z,30.96
2022-07-29T10:20:17.879Z,30.75
2022-07-29T10:21:22.673Z,30.57
2022-07-29T10:22:43.326Z,30.17
2022-07-29T10:23:17.790Z,30.27
2022-07-29T10:24:17.789Z,30.37
2022-07-29T10:25:17.790Z,30.30
2022-07-29T10:26:17.787Z,30.10
2022-07-29T10:27:17.791Z,29.61
2022-07-29T10:28:17.790Z,29.30
2022-07-29T10:29:17.784Z,29.38
2022-07-29T10:30:17.784Z,29.57
2022-07-29T10:31:17.835Z,29.86
2022-07-29T10:32:17.791Z,29.94
2022-07-29T10:33:17.909Z,30.24
2022-07-29T10:34:17.917Z,30.04
2022-07-29T10:35:17.790Z,29.65
2022-07-29T10:36:18.535Z,29.93
2022-07-29T10:37:17.790Z,30.13
2022-07-29T10:38:17.782Z,30.32
2022-07-29T10:39:17.810Z,30.51
2022-07-29T10:40:17.783Z,30.21
2022-07-29T10:41:19.434Z,30.31
2022-07-29T10:42:17.786Z,30.22
2022-07-29T10:43:17.784Z,29.74
2022-07-29T10:44:19.122Z,29.74
2022-07-29T10:45:17.786Z,29.34
2022-07-29T10:46:17.925Z,29.72
2022-07-29T10:47:17.779Z,29.43
2022-07-29T10:48:17.779Z,30.02
2022-07-29T10:49:18.184Z,30.30
2022-07-29T10:50:17.848Z,29.92
2022-07-29T10:51:17.859Z,30.02
2022-07-29T10:52:17.778Z,29.82
2022-07-29T10:53:17.777Z,29.13
2022-07-29T10:54:17.776Z,29.21
2022-07-29T10:55:17.775Z,29.51
2022-07-29T10:56:17.772Z,29.49
2022-07-29T10:57:17.777Z,30.28
2022-07-29T10:58:18.870Z,30.38
2022-07-29T10:59:17.772Z,30.47
2022-07-29T11:00:17.770Z,29.99
2022-07-29T11:01:17.770Z,30.40
2022-07-29T11:02:41.416Z,30.00
2022-07-29T11:03:17.812Z,30.00
2022-07-29T11:04:17.763Z,29.72
2022-07-29T11:06:18.049Z,29.80
2022-07-29T11:07:18.354Z,29.90
2022-07-29T11:08:20.116Z,30.02
2022-07-29T11:09:18.279Z,29.72
2022-07-29T11:10:18.176Z,28.93
2022-07-29T11:11:17.761Z,29.74
2022-07-29T11:12:17.926Z,29.14
2022-07-29T11:13:17.857Z,29.14
2022-07-29T11:14:17.797Z,28.95
2022-07-29T11:15:18.087Z,29.24
2022-07-29T11:16:17.820Z,28.95
2022-07-29T11:17:17.853Z,29.43
2022-07-29T11:18:17.915Z,29.02
2022-07-29T11:19:26.401Z,29.41
2022-07-29T11:20:17.768Z,29.89
2022-07-29T11:21:17.799Z,29.90
2022-07-29T11:22:17.828Z,29.90
2022-07-29T11:23:17.849Z,29.99
2022-07-29T11:24:18.658Z,30.08
2022-07-29T11:25:17.754Z,30.18
2022-07-29T11:26:18.688Z,30.28
2022-07-29T11:27:18.205Z,30.19
2022-07-29T11:28:23.198Z,30.00
2022-07-29T11:29:17.835Z,29.62
2022-07-29T11:30:17.809Z,29.13
2022-07-29T11:31:17.927Z,29.05
2022-07-29T11:32:18.348Z,29.14
2022-07-29T11:33:17.780Z,29.35
2022-07-29T11:34:17.791Z,28.86
2022-07-29T11:35:18.853Z,28.28
2022-07-29T11:36:17.904Z,28.27
2022-07-29T11:37:18.012Z,28.47
2022-07-29T11:38:17.791Z,28.55
2022-07-29T11:39:17.747Z,28.93
2022-07-29T11:40:18.306Z,29.31
2022-07-29T11:41:17.797Z,29.11
2022-07-29T11:42:18.087Z,29.79
2022-07-29T11:43:18.196Z,29.97
2022-07-29T11:44:18.194Z,30.35
2022-07-29T11:45:43.613Z,30.65
2022-07-29T11:46:18.088Z,30.66
2022-07-29T11:47:18.105Z,30.38
2022-07-29T11:48:29.267Z,30.40
2022-07-29T11:49:18.386Z,29.93
2022-07-29T11:50:17.813Z,29.16
2022-07-29T11:51:17.715Z,28.68
2022-07-29T11:52:17.830Z,28.40
2022-07-29T11:53:17.800Z,28.02
2022-07-29T11:54:17.794Z,27.82
2022-07-29T11:55:17.769Z,27.42
2022-07-29T11:56:17.717Z,27.64
2022-07-29T11:57:17.763Z,27.53
2022-07-29T11:58:17.785Z,27.55
2022-07-29T11:59:17.949Z,27.36
2022-07-29T12:00:18.733Z,27.18
2022-07-29T12:01:17.797Z,27.08
2022-07-29T12:02:37.461Z,26.80
2022-07-29T12:03:18.549Z,26.51
2022-07-29T12:04:17.934Z,26.03
2022-07-29T12:06:18.616Z,25.93
2022-07-29T12:07:17.762Z,25.84
2022-07-29T12:08:17.717Z,25.52
2022-07-29T12:09:18.087Z,25.62
2022-07-29T12:10:19.460Z,25.71
2022-07-29T12:11:17.882Z,25.51
2022-07-29T12:12:17.800Z,25.42
2022-07-29T12:13:17.904Z,25.42
2022-07-29T12:14:17.875Z,25.32
2022-07-29T12:15:18.060Z,25.81
2022-07-29T12:16:28.146Z,25.82
2022-07-29T12:17:17.711Z,25.54
2022-07-29T12:18:18.453Z,25.04
2022-07-29T12:19:18.410Z,25.25
2022-07-29T12:20:18.036Z,25.05
2022-07-29T12:21:18.415Z,24.18
2022-07-29T12:22:18.680Z,23.88
2022-07-29T12:23:18.838Z,24.19
2022-07-29T12:24:17.721Z,23.70
2022-07-29T12:25:32.360Z,23.30
2022-07-29T12:26:25.326Z,23.39
2022-07-29T12:27:17.721Z,23.29
2022-07-29T12:28:18.585Z,24.27
2022-07-29T12:29:20.394Z,24.19
2022-07-29T12:30:17.722Z,23.79
2022-07-29T12:31:43.021Z,23.58
2022-07-29T12:32:19.450Z,23.97
2022-07-29T12:33:17.725Z,23.86
2022-07-29T12:34:17.747Z,24.07
2022-07-29T12:35:18.327Z,24.18
2022-07-29T12:36:18.073Z,24.19
2022-07-29T12:37:17.738Z,23.30
2022-07-29T12:38:17.722Z,23.32
2022-07-29T12:39:17.728Z,23.13
2022-07-29T12:40:17.779Z,22.44
2022-07-29T12:41:17.738Z,22.64
2022-07-29T12:42:18.560Z,22.25
2022-07-29T12:43:17.739Z,22.33
2022-07-29T12:44:17.747Z,22.24
2022-07-29T12:45:17.733Z,22.25
2022-07-29T12:46:17.779Z,22.16
2022-07-29T12:47:17.785Z,22.26
2022-07-29T12:48:17.748Z,22.24
2022-07-29T12:49:17.920Z,22.31
2022-07-29T12:50:17.935Z,22.99
2022-07-29T12:51:17.740Z,23.15
2022-07-29T12:52:17.738Z,24.11
2022-07-29T12:53:17.939Z,24.67
2022-07-29T12:54:17.746Z,25.34